EFW5QL EGKK-LGIR
Flight info
| Callsign | EFW5QL |
|---|---|
| Flight time | 3h 33m |
| Altitude | 35000 |
| Route | BOGNA L612 XAMAB UL612 OGULO DCT OKASI DCT OKEKO DCT MOU DCT MADIV DCT MOKIP DCT TUFTA DCT KOGAS DCT MEDAM DCT NITAM DCT MOGBO/N0444F370 DCT GIKIN DCT TOPNO DCT ULFIG DCT LATAN DCT TRL UM601 EKTOS DCT MIL UL617 XAVIS |
| Aircraft | A320/M-SDE3FGHIJ1KRWXY/LB1 |
Departure
| Time | 2026-04-17 09:28 |
|---|---|
| Airport | London Gatwick Airport (EGKK) |
Arrival
| Time | 2026-04-17 13:02 |
|---|---|
| Airport | Heraklion International Nikos Kazantzakis Airport (LGIR) |
| Time | Latitude | Longitude | Altitude | Speed | Heading |
|---|---|---|---|---|---|
| 2026-04-17 08:39 | 51.15446 | -0.16419 | 204 ft | 0 kts | 78° |
| 2026-04-17 09:17 | 51.15443 | -0.16444 | 213 ft | 4 kts | 78° |
| 2026-04-17 09:18 | 51.15437 | -0.16484 | 204 ft | 4 kts | 63° |
| 2026-04-17 09:18 | 51.15421 | -0.16504 | 204 ft | 4 kts | 357° |
| 2026-04-17 09:18 | 51.15401 | -0.16499 | 212 ft | 4 kts | 347° |
| 2026-04-17 09:18 | 51.15391 | -0.16495 | 204 ft | 1 kts | 347° |
| 2026-04-17 09:22 | 51.15393 | -0.16496 | 204 ft | 1 kts | 347° |
| 2026-04-17 09:22 | 51.15405 | -0.16501 | 212 ft | 3 kts | 340° |
| 2026-04-17 09:23 | 51.15413 | -0.16530 | 204 ft | 3 kts | 276° |
| 2026-04-17 09:23 | 51.15409 | -0.16577 | 204 ft | 5 kts | 258° |
| 2026-04-17 09:23 | 51.15401 | -0.16643 | 213 ft | 7 kts | 258° |
| 2026-04-17 09:23 | 51.15388 | -0.16729 | 210 ft | 9 kts | 257° |
| 2026-04-17 09:24 | 51.15373 | -0.16836 | 212 ft | 11 kts | 257° |
| 2026-04-17 09:24 | 51.15355 | -0.16964 | 206 ft | 13 kts | 258° |
| 2026-04-17 09:24 | 51.15335 | -0.17112 | 204 ft | 15 kts | 257° |
| 2026-04-17 09:24 | 51.15313 | -0.17269 | 212 ft | 11 kts | 258° |
| 2026-04-17 09:25 | 51.15273 | -0.17341 | 211 ft | 10 kts | 172° |
| 2026-04-17 09:25 | 51.15209 | -0.17275 | 207 ft | 12 kts | 144° |
| 2026-04-17 09:25 | 51.15183 | -0.17174 | 206 ft | 11 kts | 78° |
| 2026-04-17 09:25 | 51.15199 | -0.17059 | 206 ft | 10 kts | 78° |
| 2026-04-17 09:26 | 51.15215 | -0.16943 | 215 ft | 7 kts | 78° |
| 2026-04-17 09:26 | 51.15225 | -0.16864 | 204 ft | 8 kts | 83° |
| 2026-04-17 09:26 | 51.15193 | -0.16794 | 203 ft | 9 kts | 155° |
| 2026-04-17 09:26 | 51.15128 | -0.16795 | 211 ft | 9 kts | 225° |
| 2026-04-17 09:27 | 51.15107 | -0.16904 | 210 ft | 11 kts | 258° |
| 2026-04-17 09:27 | 51.15065 | -0.17206 | 204 ft | 57 kts | 257° |
| 2026-04-17 09:27 | 51.14934 | -0.18149 | 204 ft | 115 kts | 257° |
| 2026-04-17 09:27 | 51.14730 | -0.19635 | 210 ft | 158 kts | 256° |
| 2026-04-17 09:28 | 51.14497 | -0.21335 | 685 ft | 159 kts | 254° |
| 2026-04-17 09:28 | 51.14256 | -0.23074 | 1237 ft | 162 kts | 255° |
| 2026-04-17 09:28 | 51.13987 | -0.24915 | 1567 ft | 183 kts | 253° |
| 2026-04-17 09:28 | 51.13682 | -0.27017 | 1829 ft | 207 kts | 256° |
| 2026-04-17 09:29 | 51.13369 | -0.29303 | 2558 ft | 213 kts | 255° |
| 2026-04-17 09:29 | 51.13057 | -0.31596 | 3461 ft | 212 kts | 255° |
| 2026-04-17 09:29 | 51.12740 | -0.33895 | 4244 ft | 214 kts | 255° |
| 2026-04-17 09:29 | 51.12418 | -0.36211 | 4992 ft | 216 kts | 255° |
| 2026-04-17 09:30 | 51.12080 | -0.38561 | 5694 ft | 218 kts | 251° |
| 2026-04-17 09:30 | 51.11333 | -0.40651 | 6347 ft | 223 kts | 224° |
| 2026-04-17 09:30 | 51.09987 | -0.41890 | 6988 ft | 231 kts | 195° |
| 2026-04-17 09:30 | 51.08361 | -0.41961 | 7654 ft | 237 kts | 179° |
| 2026-04-17 09:31 | 51.06693 | -0.41739 | 8138 ft | 250 kts | 178° |
| 2026-04-17 09:31 | 51.04884 | -0.41490 | 8491 ft | 269 kts | 179° |
| 2026-04-17 09:31 | 51.03001 | -0.41240 | 9144 ft | 274 kts | 179° |
| 2026-04-17 09:31 | 51.01081 | -0.40982 | 9858 ft | 279 kts | 179° |
| 2026-04-17 09:32 | 50.99140 | -0.40719 | 10505 ft | 281 kts | 179° |
| 2026-04-17 09:32 | 50.97181 | -0.40466 | 11177 ft | 283 kts | 180° |
| 2026-04-17 09:32 | 50.95210 | -0.40220 | 11864 ft | 285 kts | 180° |
| 2026-04-17 09:32 | 50.93226 | -0.39973 | 12548 ft | 288 kts | 180° |
| 2026-04-17 09:33 | 50.91163 | -0.39717 | 12759 ft | 307 kts | 180° |
| 2026-04-17 09:33 | 50.88970 | -0.39450 | 12898 ft | 325 kts | 179° |
| 2026-04-17 09:33 | 50.86658 | -0.39166 | 13079 ft | 342 kts | 179° |
| 2026-04-17 09:33 | 50.84263 | -0.38747 | 13592 ft | 351 kts | 171° |
| 2026-04-17 09:34 | 50.81983 | -0.37353 | 14202 ft | 363 kts | 154° |
| 2026-04-17 09:34 | 50.79836 | -0.35177 | 14736 ft | 368 kts | 151° |
| 2026-04-17 09:34 | 50.77662 | -0.32915 | 15292 ft | 371 kts | 151° |
| 2026-04-17 09:34 | 50.75531 | -0.30694 | 15794 ft | 374 kts | 151° |
| 2026-04-17 09:35 | 50.73354 | -0.28435 | 16295 ft | 376 kts | 151° |
| 2026-04-17 09:35 | 50.71150 | -0.26156 | 16797 ft | 380 kts | 151° |
| 2026-04-17 09:35 | 50.68931 | -0.23862 | 17303 ft | 383 kts | 151° |
| 2026-04-17 09:35 | 50.66705 | -0.21535 | 17815 ft | 387 kts | 151° |
| 2026-04-17 09:36 | 50.64456 | -0.19170 | 18376 ft | 389 kts | 151° |
| 2026-04-17 09:36 | 50.62199 | -0.16797 | 18872 ft | 391 kts | 151° |
| 2026-04-17 09:36 | 50.59924 | -0.14405 | 19372 ft | 394 kts | 151° |
| 2026-04-17 09:36 | 50.57638 | -0.12011 | 19875 ft | 397 kts | 151° |
| 2026-04-17 09:37 | 50.55329 | -0.09601 | 20385 ft | 400 kts | 151° |
| 2026-04-17 09:37 | 50.53001 | -0.07174 | 20875 ft | 402 kts | 151° |
| 2026-04-17 09:37 | 50.50662 | -0.04736 | 21342 ft | 405 kts | 151° |
| 2026-04-17 09:37 | 50.48307 | -0.02283 | 21794 ft | 408 kts | 151° |
| 2026-04-17 09:38 | 50.45934 | 0.00185 | 22223 ft | 411 kts | 151° |
| 2026-04-17 09:38 | 50.43542 | 0.02666 | 22625 ft | 414 kts | 151° |
| 2026-04-17 09:38 | 50.41133 | 0.05157 | 23022 ft | 416 kts | 151° |
| 2026-04-17 09:38 | 50.38708 | 0.07664 | 23428 ft | 419 kts | 151° |
| 2026-04-17 09:39 | 50.36270 | 0.10186 | 23821 ft | 421 kts | 151° |
| 2026-04-17 09:39 | 50.33816 | 0.12721 | 24166 ft | 424 kts | 151° |
| 2026-04-17 09:39 | 50.31348 | 0.15266 | 24505 ft | 426 kts | 151° |
| 2026-04-17 09:39 | 50.28864 | 0.17823 | 24834 ft | 428 kts | 151° |
| 2026-04-17 09:40 | 50.26368 | 0.20383 | 25166 ft | 430 kts | 152° |
| 2026-04-17 09:40 | 50.23858 | 0.22950 | 25483 ft | 432 kts | 152° |
| 2026-04-17 09:40 | 50.21330 | 0.25538 | 25806 ft | 435 kts | 152° |
| 2026-04-17 09:40 | 50.18794 | 0.28142 | 26103 ft | 437 kts | 151° |
| 2026-04-17 09:41 | 50.16257 | 0.30759 | 26418 ft | 438 kts | 151° |
| 2026-04-17 09:41 | 50.13742 | 0.33355 | 26727 ft | 441 kts | 151° |
| 2026-04-17 09:41 | 50.11178 | 0.35996 | 27051 ft | 443 kts | 151° |
| 2026-04-17 09:41 | 50.08602 | 0.38645 | 27346 ft | 445 kts | 151° |
| 2026-04-17 09:42 | 50.06012 | 0.41302 | 27651 ft | 447 kts | 151° |
| 2026-04-17 09:42 | 50.03381 | 0.43998 | 28041 ft | 447 kts | 151° |
| 2026-04-17 09:42 | 50.00818 | 0.46616 | 28450 ft | 445 kts | 151° |
| 2026-04-17 09:42 | 49.98227 | 0.49256 | 28806 ft | 446 kts | 151° |
| 2026-04-17 09:43 | 49.95627 | 0.51897 | 29161 ft | 446 kts | 151° |
| 2026-04-17 09:43 | 49.93039 | 0.54525 | 29589 ft | 445 kts | 151° |
| 2026-04-17 09:43 | 49.90445 | 0.57152 | 30018 ft | 444 kts | 151° |
| 2026-04-17 09:43 | 49.87861 | 0.59765 | 30411 ft | 443 kts | 151° |
| 2026-04-17 09:44 | 49.85305 | 0.62446 | 30756 ft | 445 kts | 146° |
| 2026-04-17 09:44 | 49.83702 | 0.64449 | 30967 ft | 446 kts | 144° |
| 2026-04-17 09:44 | 49.81300 | 0.67490 | 31297 ft | 446 kts | 145° |
| 2026-04-17 09:44 | 49.78897 | 0.70531 | 31626 ft | 446 kts | 145° |
| 2026-04-17 09:45 | 49.76489 | 0.73564 | 31977 ft | 446 kts | 145° |
| 2026-04-17 09:45 | 49.74091 | 0.76580 | 32291 ft | 445 kts | 145° |
| 2026-04-17 09:45 | 49.71691 | 0.79597 | 32631 ft | 445 kts | 144° |
| 2026-04-17 09:45 | 49.69289 | 0.82606 | 32978 ft | 445 kts | 145° |
| 2026-04-17 09:46 | 49.66883 | 0.85608 | 33330 ft | 444 kts | 145° |
| 2026-04-17 09:46 | 49.64477 | 0.88604 | 33680 ft | 444 kts | 145° |
| 2026-04-17 09:46 | 49.62067 | 0.91603 | 34008 ft | 445 kts | 144° |
| 2026-04-17 09:46 | 49.59660 | 0.94600 | 34290 ft | 445 kts | 144° |
| 2026-04-17 09:47 | 49.57249 | 0.97600 | 34545 ft | 446 kts | 144° |
| 2026-04-17 09:47 | 49.54840 | 1.00602 | 34802 ft | 445 kts | 144° |
| 2026-04-17 09:47 | 49.52430 | 1.03596 | 35040 ft | 445 kts | 144° |
| 2026-04-17 09:47 | 49.50020 | 1.06587 | 35198 ft | 445 kts | 144° |
| 2026-04-17 09:48 | 49.45137 | 1.12631 | 35241 ft | 457 kts | 144° |
| 2026-04-17 09:48 | 49.40140 | 1.18790 | 35244 ft | 463 kts | 144° |
| 2026-04-17 09:49 | 49.35140 | 1.24942 | 35247 ft | 464 kts | 144° |
| 2026-04-17 09:49 | 49.30104 | 1.31122 | 35248 ft | 464 kts | 144° |
| 2026-04-17 09:50 | 49.25063 | 1.37293 | 35242 ft | 464 kts | 144° |
| 2026-04-17 09:50 | 49.20021 | 1.43462 | 35243 ft | 464 kts | 144° |
| 2026-04-17 09:51 | 49.14972 | 1.49619 | 35232 ft | 465 kts | 144° |
| 2026-04-17 09:51 | 49.09902 | 1.55758 | 35239 ft | 465 kts | 144° |
| 2026-04-17 09:52 | 49.04827 | 1.61886 | 35237 ft | 465 kts | 144° |
| 2026-04-17 09:52 | 48.99763 | 1.68016 | 35246 ft | 465 kts | 144° |
| 2026-04-17 09:53 | 48.94706 | 1.74124 | 35238 ft | 464 kts | 144° |
| 2026-04-17 09:53 | 48.89673 | 1.80166 | 35234 ft | 463 kts | 144° |
| 2026-04-17 09:54 | 48.84611 | 1.86216 | 35233 ft | 464 kts | 144° |
| 2026-04-17 09:54 | 48.79531 | 1.92277 | 35248 ft | 464 kts | 144° |
| 2026-04-17 09:55 | 48.74463 | 1.98323 | 35254 ft | 464 kts | 144° |
| 2026-04-17 09:55 | 48.69387 | 2.04381 | 35253 ft | 464 kts | 144° |
| 2026-04-17 09:56 | 48.64307 | 2.10423 | 35251 ft | 465 kts | 144° |
| 2026-04-17 09:56 | 48.59214 | 2.16429 | 35245 ft | 464 kts | 144° |
| 2026-04-17 09:57 | 48.54395 | 2.22935 | 35241 ft | 467 kts | 136° |
| 2026-04-17 09:57 | 48.49821 | 2.29893 | 35229 ft | 468 kts | 136° |
| 2026-04-17 09:58 | 48.45226 | 2.36848 | 35228 ft | 468 kts | 136° |
| 2026-04-17 09:58 | 48.40585 | 2.43696 | 35220 ft | 468 kts | 138° |
| 2026-04-17 09:59 | 48.35851 | 2.50395 | 35231 ft | 466 kts | 139° |
| 2026-04-17 09:59 | 48.31108 | 2.57048 | 35234 ft | 466 kts | 139° |
| 2026-04-17 10:00 | 48.26423 | 2.63693 | 35229 ft | 466 kts | 138° |
| 2026-04-17 10:00 | 48.21706 | 2.70405 | 35231 ft | 467 kts | 138° |
| 2026-04-17 10:01 | 48.16983 | 2.77100 | 35221 ft | 467 kts | 138° |
| 2026-04-17 10:01 | 48.12262 | 2.83765 | 35224 ft | 466 kts | 138° |
| 2026-04-17 10:02 | 48.07537 | 2.90413 | 35230 ft | 466 kts | 138° |
| 2026-04-17 10:02 | 48.02807 | 2.97055 | 35232 ft | 466 kts | 138° |
| 2026-04-17 10:03 | 47.98075 | 3.03688 | 35231 ft | 467 kts | 138° |
| 2026-04-17 10:03 | 47.93338 | 3.10317 | 35226 ft | 467 kts | 138° |
| 2026-04-17 10:04 | 47.88592 | 3.16927 | 35235 ft | 467 kts | 138° |
| 2026-04-17 10:04 | 47.83841 | 3.23521 | 35235 ft | 467 kts | 138° |
| 2026-04-17 10:05 | 47.79092 | 3.30120 | 35238 ft | 467 kts | 138° |
| 2026-04-17 10:05 | 47.74341 | 3.36700 | 35227 ft | 467 kts | 138° |
| 2026-04-17 10:06 | 47.69581 | 3.43258 | 35236 ft | 467 kts | 139° |
| 2026-04-17 10:06 | 47.64813 | 3.49804 | 35236 ft | 467 kts | 139° |
| 2026-04-17 10:07 | 47.60044 | 3.56332 | 35238 ft | 466 kts | 139° |
| 2026-04-17 10:07 | 47.55283 | 3.62849 | 35239 ft | 466 kts | 139° |
| 2026-04-17 10:08 | 47.50514 | 3.69369 | 35222 ft | 466 kts | 139° |
| 2026-04-17 10:08 | 47.45748 | 3.75850 | 35224 ft | 466 kts | 139° |
| 2026-04-17 10:09 | 47.40975 | 3.82322 | 35228 ft | 466 kts | 139° |
| 2026-04-17 10:09 | 47.36242 | 3.88735 | 35221 ft | 465 kts | 139° |
| 2026-04-17 10:10 | 47.31477 | 3.95185 | 35213 ft | 466 kts | 139° |
| 2026-04-17 10:11 | 47.24306 | 4.04846 | 35223 ft | 466 kts | 140° |
| 2026-04-17 10:11 | 47.19511 | 4.11270 | 35228 ft | 466 kts | 140° |
| 2026-04-17 10:12 | 47.14724 | 4.17669 | 35226 ft | 465 kts | 140° |
| 2026-04-17 10:12 | 47.09934 | 4.24076 | 35212 ft | 465 kts | 140° |
| 2026-04-17 10:13 | 47.05139 | 4.30465 | 35217 ft | 466 kts | 140° |
| 2026-04-17 10:13 | 47.00337 | 4.36843 | 35220 ft | 466 kts | 140° |
| 2026-04-17 10:14 | 46.95522 | 4.43241 | 35225 ft | 467 kts | 140° |
| 2026-04-17 10:14 | 46.90700 | 4.49611 | 35231 ft | 467 kts | 140° |
| 2026-04-17 10:15 | 46.85872 | 4.55957 | 35215 ft | 467 kts | 140° |
| 2026-04-17 10:15 | 46.81044 | 4.62304 | 35221 ft | 467 kts | 140° |
| 2026-04-17 10:16 | 46.76223 | 4.68637 | 35216 ft | 466 kts | 140° |
| 2026-04-17 10:16 | 46.71393 | 4.74961 | 35215 ft | 467 kts | 140° |
| 2026-04-17 10:17 | 46.66559 | 4.81264 | 35216 ft | 466 kts | 140° |
| 2026-04-17 10:17 | 46.61716 | 4.87572 | 35209 ft | 467 kts | 140° |
| 2026-04-17 10:18 | 46.56873 | 4.93863 | 35217 ft | 467 kts | 140° |
| 2026-04-17 10:18 | 46.52058 | 5.00102 | 35214 ft | 467 kts | 140° |
| 2026-04-17 10:19 | 46.47366 | 5.06618 | 35211 ft | 468 kts | 130° |
| 2026-04-17 10:19 | 46.44049 | 5.14715 | 35201 ft | 469 kts | 111° |
| 2026-04-17 10:20 | 46.42229 | 5.23799 | 35202 ft | 469 kts | 105° |
| 2026-04-17 10:20 | 46.40535 | 5.32946 | 35200 ft | 469 kts | 105° |
| 2026-04-17 10:21 | 46.38309 | 5.41809 | 35197 ft | 469 kts | 119° |
| 2026-04-17 10:21 | 46.34511 | 5.49417 | 35198 ft | 467 kts | 132° |
| 2026-04-17 10:22 | 46.30290 | 5.56559 | 35199 ft | 468 kts | 132° |
| 2026-04-17 10:22 | 46.26058 | 5.63706 | 35213 ft | 468 kts | 132° |
| 2026-04-17 10:23 | 46.21821 | 5.70858 | 35222 ft | 469 kts | 132° |
| 2026-04-17 10:23 | 46.17573 | 5.78020 | 35225 ft | 470 kts | 132° |
| 2026-04-17 10:24 | 46.13311 | 5.85174 | 35236 ft | 470 kts | 132° |
| 2026-04-17 10:24 | 46.09044 | 5.92320 | 35236 ft | 471 kts | 131° |
| 2026-04-17 10:25 | 46.04773 | 5.99449 | 35228 ft | 470 kts | 132° |
| 2026-04-17 10:25 | 46.00487 | 6.06573 | 35213 ft | 470 kts | 132° |
| 2026-04-17 10:26 | 45.96207 | 6.13682 | 35215 ft | 470 kts | 132° |
| 2026-04-17 10:26 | 45.91918 | 6.20794 | 35214 ft | 471 kts | 132° |
| 2026-04-17 10:27 | 45.87624 | 6.27900 | 35224 ft | 472 kts | 132° |
| 2026-04-17 10:27 | 45.83336 | 6.34963 | 35216 ft | 472 kts | 132° |
| 2026-04-17 10:28 | 45.78585 | 6.41398 | 35193 ft | 469 kts | 146° |
| 2026-04-17 10:28 | 45.73256 | 6.46820 | 35197 ft | 469 kts | 146° |
| 2026-04-17 10:29 | 45.67941 | 6.52230 | 35185 ft | 470 kts | 146° |
| 2026-04-17 10:29 | 45.62613 | 6.57632 | 35187 ft | 469 kts | 146° |
| 2026-04-17 10:30 | 45.57284 | 6.63021 | 35179 ft | 469 kts | 146° |
| 2026-04-17 10:30 | 45.51940 | 6.68424 | 35202 ft | 471 kts | 146° |
| 2026-04-17 10:31 | 45.47496 | 6.72899 | 35214 ft | 471 kts | 146° |
| 2026-04-17 10:31 | 45.42149 | 6.78285 | 35211 ft | 471 kts | 146° |
| 2026-04-17 10:32 | 45.36789 | 6.83660 | 35204 ft | 471 kts | 146° |
| 2026-04-17 10:32 | 45.31432 | 6.89011 | 35194 ft | 471 kts | 147° |
| 2026-04-17 10:33 | 45.26150 | 6.94462 | 35189 ft | 468 kts | 141° |
| 2026-04-17 10:33 | 45.21424 | 7.00897 | 35182 ft | 473 kts | 136° |
| 2026-04-17 10:34 | 45.16693 | 7.07441 | 35230 ft | 475 kts | 136° |
| 2026-04-17 10:34 | 45.11953 | 7.13955 | 35235 ft | 474 kts | 135° |
| 2026-04-17 10:35 | 45.07867 | 7.21280 | 35243 ft | 474 kts | 125° |
| 2026-04-17 10:35 | 45.04088 | 7.28896 | 35251 ft | 473 kts | 125° |
| 2026-04-17 10:36 | 45.00309 | 7.36509 | 35228 ft | 473 kts | 125° |
| 2026-04-17 10:36 | 44.96534 | 7.44140 | 35182 ft | 473 kts | 124° |
| 2026-04-17 10:37 | 44.92891 | 7.51874 | 35181 ft | 474 kts | 123° |
| 2026-04-17 10:37 | 44.89266 | 7.59654 | 35187 ft | 476 kts | 123° |
| 2026-04-17 10:38 | 44.85633 | 7.67357 | 35182 ft | 473 kts | 123° |
| 2026-04-17 10:38 | 44.81979 | 7.75057 | 35158 ft | 474 kts | 123° |
| 2026-04-17 10:39 | 44.78314 | 7.82733 | 35187 ft | 471 kts | 123° |
| 2026-04-17 10:39 | 44.74678 | 7.90360 | 35175 ft | 468 kts | 123° |
| 2026-04-17 10:40 | 44.71038 | 7.97985 | 35163 ft | 470 kts | 123° |
| 2026-04-17 10:40 | 44.67384 | 8.05602 | 35162 ft | 470 kts | 123° |
| 2026-04-17 10:41 | 44.63725 | 8.13224 | 35160 ft | 471 kts | 123° |
| 2026-04-17 10:41 | 44.60045 | 8.20848 | 35159 ft | 471 kts | 123° |
| 2026-04-17 10:42 | 44.56359 | 8.28457 | 35164 ft | 471 kts | 123° |
| 2026-04-17 10:42 | 44.52700 | 8.36005 | 35168 ft | 471 kts | 123° |
| 2026-04-17 10:43 | 44.49016 | 8.43594 | 35161 ft | 471 kts | 123° |
| 2026-04-17 10:43 | 44.45323 | 8.51175 | 35152 ft | 472 kts | 123° |
| 2026-04-17 10:44 | 44.41623 | 8.58748 | 35141 ft | 471 kts | 123° |
| 2026-04-17 10:44 | 44.37915 | 8.66320 | 35140 ft | 472 kts | 123° |
| 2026-04-17 10:45 | 44.34198 | 8.73884 | 35146 ft | 472 kts | 123° |
| 2026-04-17 10:45 | 44.30466 | 8.81444 | 35149 ft | 473 kts | 123° |
| 2026-04-17 10:46 | 44.26738 | 8.89002 | 35149 ft | 473 kts | 123° |
| 2026-04-17 10:46 | 44.23004 | 8.96545 | 35154 ft | 472 kts | 124° |
| 2026-04-17 10:47 | 44.19264 | 9.04069 | 35154 ft | 472 kts | 124° |
| 2026-04-17 10:47 | 44.15527 | 9.11577 | 35165 ft | 472 kts | 123° |
| 2026-04-17 10:48 | 44.11786 | 9.19077 | 35157 ft | 471 kts | 123° |
| 2026-04-17 10:48 | 44.08042 | 9.26570 | 35156 ft | 471 kts | 123° |
| 2026-04-17 10:49 | 44.04319 | 9.33994 | 35150 ft | 470 kts | 123° |
| 2026-04-17 10:49 | 44.00567 | 9.41437 | 35147 ft | 470 kts | 123° |
| 2026-04-17 10:50 | 43.96811 | 9.48877 | 35161 ft | 470 kts | 123° |
| 2026-04-17 10:50 | 43.93059 | 9.56318 | 35159 ft | 470 kts | 123° |
| 2026-04-17 10:51 | 43.89300 | 9.63739 | 35147 ft | 470 kts | 123° |
| 2026-04-17 10:51 | 43.85535 | 9.71148 | 35143 ft | 470 kts | 123° |
| 2026-04-17 10:52 | 43.81764 | 9.78547 | 35150 ft | 470 kts | 124° |
| 2026-04-17 10:52 | 43.77993 | 9.85951 | 35151 ft | 470 kts | 124° |
| 2026-04-17 10:53 | 43.74219 | 9.93337 | 35150 ft | 470 kts | 124° |
| 2026-04-17 10:53 | 43.70455 | 10.00667 | 35144 ft | 470 kts | 124° |
| 2026-04-17 10:54 | 43.66662 | 10.08023 | 35144 ft | 470 kts | 124° |
| 2026-04-17 10:54 | 43.62867 | 10.15376 | 35139 ft | 470 kts | 124° |
| 2026-04-17 10:55 | 43.59072 | 10.22726 | 35142 ft | 470 kts | 124° |
| 2026-04-17 10:55 | 43.55268 | 10.30064 | 35137 ft | 470 kts | 124° |
| 2026-04-17 10:56 | 43.51462 | 10.37391 | 35128 ft | 470 kts | 124° |
| 2026-04-17 10:56 | 43.47654 | 10.44706 | 35130 ft | 470 kts | 124° |
| 2026-04-17 10:57 | 43.43833 | 10.52016 | 35124 ft | 470 kts | 124° |
| 2026-04-17 10:57 | 43.40007 | 10.59322 | 35136 ft | 470 kts | 124° |
| 2026-04-17 10:58 | 43.36187 | 10.66612 | 35128 ft | 470 kts | 124° |
| 2026-04-17 10:58 | 43.32353 | 10.73899 | 35120 ft | 470 kts | 124° |
| 2026-04-17 10:59 | 43.28517 | 10.81175 | 35122 ft | 470 kts | 124° |
| 2026-04-17 10:59 | 43.24710 | 10.88388 | 35123 ft | 470 kts | 124° |
| 2026-04-17 11:00 | 43.20869 | 10.95636 | 35121 ft | 470 kts | 124° |
| 2026-04-17 11:00 | 43.16996 | 11.02914 | 35124 ft | 469 kts | 124° |
| 2026-04-17 11:01 | 43.13173 | 11.10090 | 35123 ft | 470 kts | 124° |
| 2026-04-17 11:01 | 43.09323 | 11.17314 | 35125 ft | 470 kts | 124° |
| 2026-04-17 11:02 | 43.05459 | 11.24532 | 35126 ft | 469 kts | 124° |
| 2026-04-17 11:02 | 43.01596 | 11.31717 | 35132 ft | 469 kts | 124° |
| 2026-04-17 11:03 | 42.97732 | 11.38902 | 35128 ft | 469 kts | 124° |
| 2026-04-17 11:03 | 42.93870 | 11.46072 | 35121 ft | 469 kts | 124° |
| 2026-04-17 11:04 | 42.90000 | 11.53227 | 35120 ft | 468 kts | 124° |
| 2026-04-17 11:04 | 42.86126 | 11.60387 | 35117 ft | 469 kts | 124° |
| 2026-04-17 11:05 | 42.82253 | 11.67517 | 35110 ft | 468 kts | 124° |
| 2026-04-17 11:05 | 42.78374 | 11.74654 | 35116 ft | 468 kts | 124° |
| 2026-04-17 11:06 | 42.74499 | 11.81769 | 35125 ft | 468 kts | 124° |
| 2026-04-17 11:06 | 42.70617 | 11.88864 | 35119 ft | 467 kts | 124° |
| 2026-04-17 11:07 | 42.66728 | 11.95938 | 35116 ft | 467 kts | 124° |
| 2026-04-17 11:07 | 42.62866 | 12.02957 | 35114 ft | 467 kts | 124° |
| 2026-04-17 11:08 | 42.59654 | 12.10543 | 35123 ft | 463 kts | 115° |
| 2026-04-17 11:08 | 42.56686 | 12.18297 | 35121 ft | 463 kts | 115° |
| 2026-04-17 11:09 | 42.53702 | 12.26027 | 35103 ft | 462 kts | 115° |
| 2026-04-17 11:09 | 42.50723 | 12.33740 | 35096 ft | 462 kts | 115° |
| 2026-04-17 11:10 | 42.46257 | 12.45269 | 35314 ft | 460 kts | 115° |
| 2026-04-17 11:10 | 42.44771 | 12.49107 | 35455 ft | 460 kts | 115° |
| 2026-04-17 11:10 | 42.43280 | 12.52941 | 35573 ft | 460 kts | 115° |
| 2026-04-17 11:11 | 42.41790 | 12.56766 | 35696 ft | 459 kts | 115° |
| 2026-04-17 11:11 | 42.40298 | 12.60588 | 35834 ft | 459 kts | 115° |
| 2026-04-17 11:11 | 42.38805 | 12.64404 | 35954 ft | 459 kts | 115° |
| 2026-04-17 11:11 | 42.37312 | 12.68213 | 36071 ft | 458 kts | 115° |
| 2026-04-17 11:12 | 42.35821 | 12.72015 | 36210 ft | 457 kts | 115° |
| 2026-04-17 11:12 | 42.34333 | 12.75819 | 36330 ft | 458 kts | 115° |
| 2026-04-17 11:12 | 42.32845 | 12.79619 | 36476 ft | 458 kts | 115° |
| 2026-04-17 11:12 | 42.31352 | 12.83416 | 36607 ft | 457 kts | 115° |
| 2026-04-17 11:13 | 42.29880 | 12.87157 | 36730 ft | 456 kts | 115° |
| 2026-04-17 11:13 | 42.28389 | 12.90941 | 36857 ft | 456 kts | 115° |
| 2026-04-17 11:13 | 42.26901 | 12.94716 | 37015 ft | 455 kts | 115° |
| 2026-04-17 11:13 | 42.25413 | 12.98489 | 37094 ft | 455 kts | 115° |
| 2026-04-17 11:14 | 42.22436 | 13.06008 | 37085 ft | 454 kts | 115° |
| 2026-04-17 11:14 | 42.19456 | 13.13525 | 37097 ft | 455 kts | 115° |
| 2026-04-17 11:15 | 42.16465 | 13.21042 | 37080 ft | 454 kts | 115° |
| 2026-04-17 11:15 | 42.13463 | 13.28542 | 37090 ft | 454 kts | 115° |
| 2026-04-17 11:16 | 42.10465 | 13.36041 | 37100 ft | 454 kts | 115° |
| 2026-04-17 11:16 | 42.07470 | 13.43533 | 37104 ft | 455 kts | 115° |
| 2026-04-17 11:17 | 42.04467 | 13.51016 | 37120 ft | 455 kts | 115° |
| 2026-04-17 11:17 | 42.01445 | 13.58490 | 37121 ft | 455 kts | 115° |
| 2026-04-17 11:18 | 41.98428 | 13.65951 | 37105 ft | 454 kts | 115° |
| 2026-04-17 11:18 | 41.95408 | 13.73400 | 37109 ft | 453 kts | 116° |
| 2026-04-17 11:19 | 41.92893 | 13.79596 | 37113 ft | 454 kts | 116° |
| 2026-04-17 11:19 | 41.89376 | 13.88234 | 37127 ft | 454 kts | 116° |
| 2026-04-17 11:20 | 41.86338 | 13.95656 | 37109 ft | 454 kts | 116° |
| 2026-04-17 11:20 | 41.83796 | 14.01873 | 37114 ft | 454 kts | 115° |
| 2026-04-17 11:21 | 41.80759 | 14.09296 | 37112 ft | 454 kts | 116° |
| 2026-04-17 11:21 | 41.77709 | 14.16705 | 37106 ft | 454 kts | 116° |
| 2026-04-17 11:22 | 41.74677 | 14.24053 | 37116 ft | 453 kts | 116° |
| 2026-04-17 11:22 | 41.71632 | 14.31436 | 37111 ft | 453 kts | 116° |
| 2026-04-17 11:23 | 41.68584 | 14.38809 | 37112 ft | 452 kts | 116° |
| 2026-04-17 11:23 | 41.65532 | 14.46154 | 37112 ft | 452 kts | 116° |
| 2026-04-17 11:24 | 41.62467 | 14.53496 | 37112 ft | 452 kts | 116° |
| 2026-04-17 11:24 | 41.59409 | 14.60834 | 37108 ft | 452 kts | 116° |
| 2026-04-17 11:25 | 41.56346 | 14.68162 | 37112 ft | 451 kts | 116° |
| 2026-04-17 11:25 | 41.53280 | 14.75476 | 37108 ft | 451 kts | 116° |
| 2026-04-17 11:26 | 41.50210 | 14.82770 | 37100 ft | 451 kts | 116° |
| 2026-04-17 11:26 | 41.47130 | 14.90061 | 37098 ft | 451 kts | 116° |
| 2026-04-17 11:27 | 41.44051 | 14.97349 | 37109 ft | 451 kts | 116° |
| 2026-04-17 11:27 | 41.40969 | 15.04646 | 37111 ft | 451 kts | 116° |
| 2026-04-17 11:28 | 41.37886 | 15.11923 | 37106 ft | 451 kts | 116° |
| 2026-04-17 11:28 | 41.34800 | 15.19177 | 37107 ft | 450 kts | 116° |
| 2026-04-17 11:29 | 41.31710 | 15.26422 | 37100 ft | 449 kts | 116° |
| 2026-04-17 11:29 | 41.28611 | 15.33640 | 37110 ft | 449 kts | 116° |
| 2026-04-17 11:30 | 41.25511 | 15.40847 | 37100 ft | 449 kts | 116° |
| 2026-04-17 11:30 | 41.22420 | 15.48052 | 37098 ft | 449 kts | 116° |
| 2026-04-17 11:31 | 41.19331 | 15.55255 | 37091 ft | 449 kts | 116° |
| 2026-04-17 11:31 | 41.16254 | 15.62397 | 37087 ft | 448 kts | 116° |
| 2026-04-17 11:32 | 41.13145 | 15.69568 | 37089 ft | 449 kts | 117° |
| 2026-04-17 11:32 | 41.10025 | 15.76740 | 37090 ft | 449 kts | 117° |
| 2026-04-17 11:33 | 41.06909 | 15.83905 | 37082 ft | 449 kts | 117° |
| 2026-04-17 11:33 | 41.03792 | 15.91068 | 37082 ft | 449 kts | 117° |
| 2026-04-17 11:34 | 41.00658 | 15.98233 | 37076 ft | 449 kts | 117° |
| 2026-04-17 11:34 | 40.97523 | 16.05386 | 37087 ft | 449 kts | 117° |
| 2026-04-17 11:35 | 40.94402 | 16.12557 | 37088 ft | 448 kts | 116° |
| 2026-04-17 11:35 | 40.91572 | 16.19898 | 37101 ft | 448 kts | 113° |
| 2026-04-17 11:36 | 40.88900 | 16.27285 | 37116 ft | 449 kts | 113° |
| 2026-04-17 11:36 | 40.86144 | 16.34738 | 37140 ft | 450 kts | 114° |
| 2026-04-17 11:37 | 40.83350 | 16.42086 | 37145 ft | 450 kts | 115° |
| 2026-04-17 11:37 | 40.80513 | 16.49455 | 37142 ft | 450 kts | 114° |
| 2026-04-17 11:38 | 40.77689 | 16.56825 | 37074 ft | 449 kts | 114° |
| 2026-04-17 11:38 | 40.74880 | 16.64171 | 37070 ft | 448 kts | 114° |
| 2026-04-17 11:39 | 40.72076 | 16.71491 | 37085 ft | 447 kts | 114° |
| 2026-04-17 11:39 | 40.69264 | 16.78805 | 37076 ft | 446 kts | 115° |
| 2026-04-17 11:40 | 40.66454 | 16.86086 | 37071 ft | 446 kts | 115° |
| 2026-04-17 11:40 | 40.63649 | 16.93357 | 37041 ft | 445 kts | 115° |
| 2026-04-17 11:41 | 40.60837 | 17.00613 | 37037 ft | 445 kts | 115° |
| 2026-04-17 11:41 | 40.58020 | 17.07866 | 37047 ft | 445 kts | 114° |
| 2026-04-17 11:42 | 40.55194 | 17.15112 | 37023 ft | 446 kts | 115° |
| 2026-04-17 11:42 | 40.52366 | 17.22354 | 37014 ft | 446 kts | 115° |
| 2026-04-17 11:43 | 40.49533 | 17.29595 | 37012 ft | 445 kts | 115° |
| 2026-04-17 11:43 | 40.46692 | 17.36831 | 37013 ft | 446 kts | 115° |
| 2026-04-17 11:44 | 40.43475 | 17.43724 | 37023 ft | 449 kts | 129° |
| 2026-04-17 11:44 | 40.39229 | 17.49751 | 37023 ft | 450 kts | 131° |
| 2026-04-17 11:45 | 40.34947 | 17.55736 | 37018 ft | 450 kts | 131° |
| 2026-04-17 11:45 | 40.30665 | 17.61721 | 37012 ft | 449 kts | 131° |
| 2026-04-17 11:46 | 40.26381 | 17.67690 | 37010 ft | 449 kts | 131° |
| 2026-04-17 11:46 | 40.22088 | 17.73651 | 36997 ft | 449 kts | 131° |
| 2026-04-17 11:47 | 40.17807 | 17.79603 | 36981 ft | 450 kts | 131° |
| 2026-04-17 11:47 | 40.13522 | 17.85556 | 36981 ft | 449 kts | 132° |
| 2026-04-17 11:48 | 40.09236 | 17.91490 | 36987 ft | 449 kts | 132° |
| 2026-04-17 11:48 | 40.04942 | 17.97416 | 36994 ft | 449 kts | 131° |
| 2026-04-17 11:49 | 40.00642 | 18.03335 | 36985 ft | 449 kts | 132° |
| 2026-04-17 11:49 | 39.96339 | 18.09251 | 36989 ft | 449 kts | 132° |
| 2026-04-17 11:50 | 39.92041 | 18.15156 | 36982 ft | 449 kts | 132° |
| 2026-04-17 11:50 | 39.87778 | 18.21002 | 36980 ft | 448 kts | 133° |
| 2026-04-17 11:51 | 39.83482 | 18.26902 | 36981 ft | 449 kts | 133° |
| 2026-04-17 11:51 | 39.79174 | 18.32777 | 36983 ft | 448 kts | 133° |
| 2026-04-17 11:52 | 39.74872 | 18.38624 | 36976 ft | 447 kts | 132° |
| 2026-04-17 11:52 | 39.70577 | 18.44470 | 36977 ft | 447 kts | 133° |
| 2026-04-17 11:53 | 39.66281 | 18.50299 | 36970 ft | 446 kts | 133° |
| 2026-04-17 11:53 | 39.61992 | 18.56116 | 36970 ft | 446 kts | 133° |
| 2026-04-17 11:54 | 39.57696 | 18.61923 | 36966 ft | 446 kts | 133° |
| 2026-04-17 11:54 | 39.53397 | 18.67709 | 36965 ft | 446 kts | 133° |
| 2026-04-17 11:55 | 39.49094 | 18.73492 | 36963 ft | 446 kts | 133° |
| 2026-04-17 11:55 | 39.44794 | 18.79277 | 36967 ft | 445 kts | 133° |
| 2026-04-17 11:56 | 39.40532 | 18.85014 | 36963 ft | 445 kts | 133° |
| 2026-04-17 11:56 | 39.36237 | 18.90780 | 36958 ft | 444 kts | 133° |
| 2026-04-17 11:57 | 39.31937 | 18.96524 | 36959 ft | 445 kts | 133° |
| 2026-04-17 11:57 | 39.27942 | 19.02583 | 36957 ft | 443 kts | 124° |
| 2026-04-17 11:58 | 39.24444 | 19.09126 | 36952 ft | 443 kts | 124° |
| 2026-04-17 11:58 | 39.20914 | 19.15644 | 36943 ft | 443 kts | 124° |
| 2026-04-17 11:59 | 39.17391 | 19.22142 | 36949 ft | 442 kts | 124° |
| 2026-04-17 11:59 | 39.13880 | 19.28647 | 36930 ft | 442 kts | 124° |
| 2026-04-17 12:00 | 39.10367 | 19.35135 | 36937 ft | 441 kts | 124° |
| 2026-04-17 12:00 | 39.06839 | 19.41595 | 36940 ft | 441 kts | 124° |
| 2026-04-17 12:01 | 39.03316 | 19.48054 | 36939 ft | 441 kts | 124° |
| 2026-04-17 12:01 | 38.99801 | 19.54517 | 36938 ft | 440 kts | 124° |
| 2026-04-17 12:02 | 38.96285 | 19.60961 | 36931 ft | 441 kts | 124° |
| 2026-04-17 12:02 | 38.92759 | 19.67397 | 36929 ft | 440 kts | 124° |
| 2026-04-17 12:03 | 38.89227 | 19.73816 | 36925 ft | 440 kts | 125° |
| 2026-04-17 12:03 | 38.85688 | 19.80238 | 36926 ft | 440 kts | 124° |
| 2026-04-17 12:04 | 38.82159 | 19.86646 | 36913 ft | 440 kts | 124° |
| 2026-04-17 12:04 | 38.78640 | 19.93018 | 36901 ft | 441 kts | 125° |
| 2026-04-17 12:05 | 38.75092 | 19.99426 | 36922 ft | 440 kts | 125° |
| 2026-04-17 12:05 | 38.71539 | 20.05832 | 36902 ft | 441 kts | 125° |
| 2026-04-17 12:06 | 38.67983 | 20.12231 | 36894 ft | 442 kts | 124° |
| 2026-04-17 12:06 | 38.65013 | 20.17563 | 36898 ft | 443 kts | 124° |
| 2026-04-17 12:07 | 38.61436 | 20.23976 | 36897 ft | 443 kts | 124° |
| 2026-04-17 12:07 | 38.57849 | 20.30410 | 36903 ft | 444 kts | 124° |
| 2026-04-17 12:08 | 38.54253 | 20.36838 | 36901 ft | 444 kts | 124° |
| 2026-04-17 12:08 | 38.50655 | 20.43254 | 36910 ft | 444 kts | 124° |
| 2026-04-17 12:09 | 38.47054 | 20.49672 | 36908 ft | 444 kts | 124° |
| 2026-04-17 12:09 | 38.43448 | 20.56072 | 36896 ft | 445 kts | 125° |
| 2026-04-17 12:10 | 38.39830 | 20.62479 | 36898 ft | 445 kts | 125° |
| 2026-04-17 12:10 | 38.36215 | 20.68871 | 36905 ft | 444 kts | 124° |
| 2026-04-17 12:11 | 38.32593 | 20.75261 | 36896 ft | 444 kts | 124° |
| 2026-04-17 12:12 | 38.27161 | 20.84820 | 36885 ft | 444 kts | 125° |
| 2026-04-17 12:12 | 38.23559 | 20.91156 | 36873 ft | 445 kts | 125° |
| 2026-04-17 12:13 | 38.19926 | 20.97523 | 36869 ft | 445 kts | 125° |
| 2026-04-17 12:13 | 38.16289 | 21.03891 | 36861 ft | 445 kts | 125° |
| 2026-04-17 12:14 | 38.12653 | 21.10248 | 36864 ft | 444 kts | 125° |
| 2026-04-17 12:14 | 38.09015 | 21.16600 | 36860 ft | 445 kts | 126° |
| 2026-04-17 12:15 | 38.05368 | 21.22934 | 36864 ft | 445 kts | 126° |
| 2026-04-17 12:15 | 38.01718 | 21.29269 | 36863 ft | 445 kts | 126° |
| 2026-04-17 12:16 | 37.98064 | 21.35608 | 36864 ft | 445 kts | 126° |
| 2026-04-17 12:16 | 37.94405 | 21.41944 | 36867 ft | 446 kts | 126° |
| 2026-04-17 12:17 | 37.90747 | 21.48271 | 36866 ft | 443 kts | 127° |
| 2026-04-17 12:17 | 37.87112 | 21.54524 | 36829 ft | 436 kts | 127° |
| 2026-04-17 12:18 | 37.83488 | 21.60722 | 36820 ft | 440 kts | 126° |
| 2026-04-17 12:18 | 37.79853 | 21.66975 | 36821 ft | 442 kts | 126° |
| 2026-04-17 12:19 | 37.76205 | 21.73248 | 36825 ft | 444 kts | 126° |
| 2026-04-17 12:19 | 37.72526 | 21.79537 | 36841 ft | 444 kts | 126° |
| 2026-04-17 12:20 | 37.68855 | 21.85807 | 36845 ft | 444 kts | 126° |
| 2026-04-17 12:20 | 37.65185 | 21.92070 | 36841 ft | 444 kts | 126° |
| 2026-04-17 12:21 | 37.61504 | 21.98317 | 36845 ft | 444 kts | 126° |
| 2026-04-17 12:21 | 37.57850 | 22.04535 | 36844 ft | 445 kts | 126° |
| 2026-04-17 12:22 | 37.54156 | 22.10803 | 36852 ft | 444 kts | 126° |
| 2026-04-17 12:22 | 37.50454 | 22.17047 | 36868 ft | 444 kts | 127° |
| 2026-04-17 12:23 | 37.46757 | 22.23279 | 36883 ft | 444 kts | 127° |
| 2026-04-17 12:23 | 37.43053 | 22.29485 | 36886 ft | 443 kts | 127° |
| 2026-04-17 12:24 | 37.39807 | 22.36038 | 36883 ft | 442 kts | 112° |
| 2026-04-17 12:24 | 37.37716 | 22.43283 | 36875 ft | 442 kts | 110° |
| 2026-04-17 12:25 | 37.35596 | 22.50542 | 36886 ft | 443 kts | 110° |
| 2026-04-17 12:25 | 37.33455 | 22.57790 | 36886 ft | 443 kts | 110° |
| 2026-04-17 12:26 | 37.31338 | 22.65048 | 36888 ft | 442 kts | 110° |
| 2026-04-17 12:26 | 37.29223 | 22.72298 | 36879 ft | 441 kts | 110° |
| 2026-04-17 12:27 | 37.27096 | 22.79532 | 36886 ft | 441 kts | 111° |
| 2026-04-17 12:27 | 37.24967 | 22.86765 | 36882 ft | 442 kts | 110° |
| 2026-04-17 12:28 | 37.22841 | 22.93998 | 36880 ft | 441 kts | 111° |
| 2026-04-17 12:28 | 37.20697 | 23.01220 | 36871 ft | 442 kts | 110° |
| 2026-04-17 12:29 | 37.18556 | 23.08388 | 36873 ft | 442 kts | 111° |
| 2026-04-17 12:29 | 37.16407 | 23.15604 | 36876 ft | 442 kts | 111° |
| 2026-04-17 12:30 | 37.14258 | 23.22813 | 36872 ft | 441 kts | 111° |
| 2026-04-17 12:30 | 37.12106 | 23.30019 | 36864 ft | 441 kts | 111° |
| 2026-04-17 12:31 | 37.09961 | 23.37210 | 36862 ft | 440 kts | 111° |
| 2026-04-17 12:31 | 37.07804 | 23.44371 | 36865 ft | 438 kts | 111° |
| 2026-04-17 12:32 | 37.05657 | 23.51488 | 36855 ft | 436 kts | 111° |
| 2026-04-17 12:32 | 37.03524 | 23.58535 | 36852 ft | 436 kts | 111° |
| 2026-04-17 12:33 | 37.01371 | 23.65610 | 36841 ft | 435 kts | 111° |
| 2026-04-17 12:33 | 36.99207 | 23.72710 | 36845 ft | 438 kts | 111° |
| 2026-04-17 12:34 | 36.97040 | 23.79821 | 36867 ft | 437 kts | 111° |
| 2026-04-17 12:34 | 36.94871 | 23.86915 | 36860 ft | 436 kts | 111° |
| 2026-04-17 12:35 | 36.92701 | 23.93986 | 36854 ft | 435 kts | 111° |
| 2026-04-17 12:35 | 36.90532 | 24.01064 | 36845 ft | 436 kts | 111° |
| 2026-04-17 12:37 | 36.81791 | 24.29323 | 36852 ft | 436 kts | 111° |
| 2026-04-17 12:38 | 36.79610 | 24.36373 | 36841 ft | 436 kts | 111° |
| 2026-04-17 12:38 | 36.77423 | 24.43374 | 36854 ft | 437 kts | 111° |
| 2026-04-17 12:39 | 36.74917 | 24.50273 | 36854 ft | 437 kts | 122° |
| 2026-04-17 12:39 | 36.70889 | 24.55892 | 36849 ft | 436 kts | 140° |
| 2026-04-17 12:40 | 36.66208 | 24.60664 | 36700 ft | 435 kts | 140° |
| 2026-04-17 12:40 | 36.63847 | 24.63071 | 35774 ft | 441 kts | 139° |
| 2026-04-17 12:40 | 36.61475 | 24.65483 | 35101 ft | 439 kts | 139° |
| 2026-04-17 12:40 | 36.59109 | 24.67889 | 34339 ft | 439 kts | 139° |
| 2026-04-17 12:41 | 36.56754 | 24.70282 | 33747 ft | 433 kts | 138° |
| 2026-04-17 12:41 | 36.54424 | 24.72645 | 32833 ft | 432 kts | 138° |
| 2026-04-17 12:41 | 36.52082 | 24.75017 | 31751 ft | 437 kts | 138° |
| 2026-04-17 12:41 | 36.49753 | 24.77357 | 31344 ft | 423 kts | 137° |
| 2026-04-17 12:42 | 36.47496 | 24.79634 | 30809 ft | 417 kts | 137° |
| 2026-04-17 12:42 | 36.45253 | 24.81910 | 30285 ft | 416 kts | 137° |
| 2026-04-17 12:42 | 36.43034 | 24.84185 | 29745 ft | 411 kts | 137° |
| 2026-04-17 12:42 | 36.40837 | 24.86431 | 29177 ft | 408 kts | 136° |
| 2026-04-17 12:43 | 36.38648 | 24.88666 | 28650 ft | 407 kts | 136° |
| 2026-04-17 12:43 | 36.36481 | 24.90855 | 28129 ft | 402 kts | 137° |
| 2026-04-17 12:43 | 36.34309 | 24.93032 | 27620 ft | 401 kts | 136° |
| 2026-04-17 12:43 | 36.32152 | 24.95192 | 27105 ft | 397 kts | 138° |
| 2026-04-17 12:44 | 36.30009 | 24.97342 | 26600 ft | 392 kts | 137° |
| 2026-04-17 12:44 | 36.27889 | 24.99452 | 26082 ft | 389 kts | 137° |
| 2026-04-17 12:44 | 36.25785 | 25.01567 | 25612 ft | 392 kts | 136° |
| 2026-04-17 12:44 | 36.23669 | 25.03706 | 25096 ft | 394 kts | 136° |
| 2026-04-17 12:45 | 36.21538 | 25.05853 | 24628 ft | 394 kts | 135° |
| 2026-04-17 12:45 | 36.19409 | 25.08013 | 24136 ft | 396 kts | 136° |
| 2026-04-17 12:45 | 36.17259 | 25.10176 | 23698 ft | 399 kts | 136° |
| 2026-04-17 12:45 | 36.15088 | 25.12348 | 23178 ft | 402 kts | 137° |
| 2026-04-17 12:46 | 36.12927 | 25.14511 | 22716 ft | 398 kts | 135° |
| 2026-04-17 12:46 | 36.10774 | 25.16658 | 22254 ft | 396 kts | 136° |
| 2026-04-17 12:46 | 36.08624 | 25.18780 | 21765 ft | 396 kts | 136° |
| 2026-04-17 12:46 | 36.06459 | 25.20931 | 21288 ft | 400 kts | 137° |
| 2026-04-17 12:47 | 36.04293 | 25.23091 | 20805 ft | 400 kts | 137° |
| 2026-04-17 12:47 | 36.02145 | 25.25256 | 20313 ft | 393 kts | 136° |
| 2026-04-17 12:47 | 36.00025 | 25.27370 | 19808 ft | 390 kts | 137° |
| 2026-04-17 12:47 | 35.97933 | 25.29457 | 19306 ft | 386 kts | 136° |
| 2026-04-17 12:48 | 35.95867 | 25.31521 | 18801 ft | 381 kts | 137° |
| 2026-04-17 12:48 | 35.93800 | 25.33558 | 18311 ft | 378 kts | 138° |
| 2026-04-17 12:48 | 35.91753 | 25.35583 | 17740 ft | 377 kts | 137° |
| 2026-04-17 12:48 | 35.89719 | 25.37597 | 17215 ft | 374 kts | 136° |
| 2026-04-17 12:49 | 35.87722 | 25.39590 | 16727 ft | 365 kts | 136° |
| 2026-04-17 12:49 | 35.85743 | 25.41556 | 16223 ft | 363 kts | 137° |
| 2026-04-17 12:49 | 35.83808 | 25.43485 | 15730 ft | 355 kts | 137° |
| 2026-04-17 12:49 | 35.81908 | 25.45385 | 15230 ft | 346 kts | 137° |
| 2026-04-17 12:50 | 35.80029 | 25.47251 | 14735 ft | 346 kts | 138° |
| 2026-04-17 12:50 | 35.78158 | 25.49105 | 14251 ft | 343 kts | 138° |
| 2026-04-17 12:50 | 35.76293 | 25.50954 | 13769 ft | 343 kts | 137° |
| 2026-04-17 12:50 | 35.74469 | 25.52768 | 13254 ft | 339 kts | 137° |
| 2026-04-17 12:51 | 35.72620 | 25.54600 | 12745 ft | 339 kts | 137° |
| 2026-04-17 12:51 | 35.70782 | 25.56396 | 12263 ft | 337 kts | 136° |
| 2026-04-17 12:51 | 35.68943 | 25.58207 | 11775 ft | 341 kts | 138° |
| 2026-04-17 12:51 | 35.67104 | 25.60025 | 11273 ft | 339 kts | 137° |
| 2026-04-17 12:52 | 35.65276 | 25.61837 | 10773 ft | 336 kts | 137° |
| 2026-04-17 12:52 | 35.63464 | 25.63654 | 10277 ft | 334 kts | 136° |
| 2026-04-17 12:52 | 35.61597 | 25.65311 | 10063 ft | 329 kts | 149° |
| 2026-04-17 12:52 | 35.59392 | 25.65941 | 9949 ft | 327 kts | 178° |
| 2026-04-17 12:53 | 35.57221 | 25.65250 | 9838 ft | 323 kts | 207° |
| 2026-04-17 12:53 | 35.55567 | 25.63413 | 9651 ft | 323 kts | 237° |
| 2026-04-17 12:53 | 35.54441 | 25.61012 | 9218 ft | 327 kts | 241° |
| 2026-04-17 12:53 | 35.53388 | 25.58578 | 9013 ft | 315 kts | 243° |
| 2026-04-17 12:54 | 35.52360 | 25.56169 | 8442 ft | 314 kts | 242° |
| 2026-04-17 12:54 | 35.51684 | 25.54601 | 8046 ft | 316 kts | 242° |
| 2026-04-17 12:54 | 35.50668 | 25.52237 | 7557 ft | 309 kts | 242° |
| 2026-04-17 12:54 | 35.49665 | 25.49920 | 7072 ft | 304 kts | 242° |
| 2026-04-17 12:55 | 35.48676 | 25.47640 | 6462 ft | 302 kts | 241° |
| 2026-04-17 12:55 | 35.47704 | 25.45392 | 5873 ft | 294 kts | 240° |
| 2026-04-17 12:55 | 35.46597 | 25.43301 | 5295 ft | 289 kts | 225° |
| 2026-04-17 12:55 | 35.45041 | 25.41858 | 4841 ft | 270 kts | 202° |
| 2026-04-17 12:56 | 35.43304 | 25.41214 | 4461 ft | 255 kts | 185° |
| 2026-04-17 12:56 | 35.41574 | 25.41279 | 3969 ft | 245 kts | 166° |
| 2026-04-17 12:56 | 35.39967 | 25.41883 | 3490 ft | 239 kts | 160° |
| 2026-04-17 12:56 | 35.38370 | 25.42403 | 3063 ft | 234 kts | 164° |
| 2026-04-17 12:57 | 35.36804 | 25.42741 | 3021 ft | 222 kts | 168° |
| 2026-04-17 12:57 | 35.35292 | 25.42734 | 2941 ft | 216 kts | 192° |
| 2026-04-17 12:57 | 35.33961 | 25.41926 | 2845 ft | 214 kts | 221° |
| 2026-04-17 12:57 | 35.33104 | 25.40452 | 2703 ft | 213 kts | 251° |
| 2026-04-17 12:58 | 35.32889 | 25.38680 | 2589 ft | 212 kts | 277° |
| 2026-04-17 12:58 | 35.32994 | 25.36904 | 2500 ft | 211 kts | 279° |
| 2026-04-17 12:58 | 35.33108 | 25.35128 | 2391 ft | 205 kts | 277° |
| 2026-04-17 12:58 | 35.33217 | 25.33390 | 2299 ft | 205 kts | 279° |
| 2026-04-17 12:59 | 35.33324 | 25.31672 | 2215 ft | 200 kts | 278° |
| 2026-04-17 12:59 | 35.33416 | 25.30034 | 2011 ft | 187 kts | 279° |
| 2026-04-17 12:59 | 35.33512 | 25.28477 | 1747 ft | 181 kts | 277° |
| 2026-04-17 12:59 | 35.33598 | 25.26992 | 1490 ft | 169 kts | 278° |
| 2026-04-17 13:00 | 35.33677 | 25.25605 | 1251 ft | 159 kts | 276° |
| 2026-04-17 13:00 | 35.33747 | 25.24309 | 1041 ft | 148 kts | 276° |
| 2026-04-17 13:00 | 35.33817 | 25.23078 | 805 ft | 139 kts | 277° |
| 2026-04-17 13:00 | 35.33811 | 25.21913 | 628 ft | 135 kts | 270° |
| 2026-04-17 13:01 | 35.33763 | 25.20760 | 415 ft | 133 kts | 276° |
| 2026-04-17 13:01 | 35.33850 | 25.19652 | 255 ft | 130 kts | 278° |
| 2026-04-17 13:01 | 35.33934 | 25.18564 | 99 ft | 124 kts | 279° |
| 2026-04-17 13:01 | 35.34002 | 25.17680 | 92 ft | 81 kts | 275° |
| 2026-04-17 13:02 | 35.34034 | 25.17195 | 90 ft | 39 kts | 275° |
| 2026-04-17 13:02 | 35.34052 | 25.16930 | 90 ft | 18 kts | 275° |
| 2026-04-17 13:02 | 35.34028 | 25.16858 | 92 ft | 10 kts | 177° |
| 2026-04-17 13:02 | 35.33998 | 25.16895 | 90 ft | 0 kts | 125° |
| 2026-04-17 13:03 | 35.33997 | 25.16896 | 90 ft | 1 kts | 125° |
| 2026-04-17 13:03 | 35.33985 | 25.16917 | 90 ft | 5 kts | 125° |
| 2026-04-17 13:04 | 35.33960 | 25.16915 | 90 ft | 4 kts | 223° |
| 2026-04-17 13:04 | 35.33956 | 25.16873 | 90 ft | 6 kts | 268° |
| 2026-04-17 13:04 | 35.33929 | 25.16858 | 91 ft | 4 kts | 186° |
| 2026-04-17 13:04 | 35.33901 | 25.16852 | 92 ft | 4 kts | 214° |
| 2026-04-17 13:05 | 35.33898 | 25.16840 | 91 ft | 2 kts | 259° |
| 2026-04-17 13:05 | 35.33908 | 25.16824 | 93 ft | 1 kts | 310° |
| 2026-04-17 13:05 | 35.33913 | 25.16816 | 91 ft | 0 kts | 319° |